MET'MAP v2.0
soon released !

Expected late october,
this new version will be
more efficient, smarter,
and hosted on a brand new
server x3 powerfull...
...and still free !


Not compatible ?
Try the mobile version !

LOG IN : | Subscribe | Disclaimer | Who is Orbifly ? |
ICAO code :
Legend : VFR Marginal VFR IFR Intensive IFR Very Intensive IFR
Visi :
Ceiling :
>= 8 km
>= 3000ft
5 to 8 km
1000 to 3000 ft
1500m to 5 km
500 to 1000 ft
800 to 1500m
200 to 500 ft
< 800m
< 200 ft

METAR - EGNR Hawarden Chester - 28 Nov 2020 11:44 UTC - Data Source NOAA   


- Airport Elevation : 45 ft
- IATA code : CEG
- No reported NOTAMs.


EGNR - Hawarden Chester

Latest METAR recorded : 2015/08/11 07:50 EGNR 110750Z 16003KT 9999 FEW030 16/11 Q1020
TAF TAF EGNR
Valid from the 28 at 09:00 until the 28 at 18:00 UTC


280844Z 2809/2818 07004KT 6000 -RA BKN012
TEMPO 2809/2818 4000 BR BKN006
PROB30
TEMPO 2809/2816 RA

Source NOAA


MET'MAP, your aeronautical weather chart ! - Copyright ORBIFLY December 2007

Programming & Development : Alexandra Zaïnal
Co-Developer : Marc-Olivier Méhu
Technical & hardware support : Manuel Goepfert
Concept & Financing : Baudouin d'Aumeries